METAR AND TAF INFORMATION
METAR FOR GCXO
ADDS - METARS form results

(2127 UTC 25 January 2020)
Data provider http://aviationweather.gov/metar/data/
 
METAR text: GCXO 252100Z 26002KT 9999 FEW007 BKN018 12/10 Q1026 NOSIG
Conditions at: GCXO (TENERIFE/LOS ROD, ES) observed 2100 UTC 25 January 2020
Temperature: 12.0°C (54°F)
Dewpoint: 10.0°C (50°F) [RH = 88%]
Pressure (altimeter): 30.30 inches Hg (1026.0 mb)
Winds: from the W (260 degrees) at 2 MPH (2 knots; 1.0 m/s)
Visibility: 6 or more miles (10+ km)
Ceiling: 1800 feet AGL
Clouds: few clouds at 700 feet AGL
broken clouds at 1800 feet AGL
Weather: no significant weather observed at this time

METAR text: GCXO 252030Z 28005KT 240V300 9999 FEW007 BKN018 12/10 Q1025 NOSIG
Conditions at: GCXO (TENERIFE/LOS ROD, ES) observed 2030 UTC 25 January 2020
Temperature: 12.0°C (54°F)
Dewpoint: 10.0°C (50°F) [RH = 88%]
Pressure (altimeter): 30.27 inches Hg (1025.0 mb)
Winds: from the W (280 degrees) at 6 MPH (5 knots; 2.6 m/s)
Visibility: 6 or more miles (10+ km)
Ceiling: 1800 feet AGL
Clouds: few clouds at 700 feet AGL
broken clouds at 1800 feet AGL
Weather: no significant weather observed at this time

Forecast for: GCXO (TENERIFE/LOS ROD, ES)
Text: TAF GCXO 252000Z 2521/2621 32007KT 9999 BKN014 TX17/2615Z TN09/2606Z
Forecast period: 2100 UTC 25 January 2020 to 1100 UTC 26 January 2020
Forecast type: FROM: standard forecast or significant change
Winds: from the NW (320 degrees) at 8 MPH (7 knots; 3.6 m/s)
Visibility: 6 or more miles 10+ km)
Ceiling: 1400 feet AGL
Clouds: broken clouds at 1400 feet AGL
Weather: no significant weather forecast for this period
Text: BECMG 2611/2613 11010KT
Forecast period: 1100 to 2100 UTC 26 January 2020
Forecast type: BECOMING: Conditions expected to become as follows by 1300 UTC 26 January 2020
Winds: from the ESE (110 degrees) at 12 MPH (10 knots; 5.1 m/s)
Visibility: 6 or more miles 10+ km)
Ceiling: 1400 feet AGL
Clouds: broken clouds at 1400 feet AGL
Weather: no significant weather forecast for this period

 AIRPORT MAP

 RUNWAY INFORMATION
Runway 12 Runway length 11155 ft Runway width 148 ft
Runway elevation 2060 ft Runway displaced threshold 0 ft Runway heading 111
Runway 30 Runway length 11155 ft Runway width 148 ft
Runway elevation 2002 ft Runway displaced threshold 0 ft Runway heading 291

 AIRPORT FREQUENCIES
Type APP Name APP Frequency 119.7 MHZ
Type ATIS Name ATIS Frequency 118.575 MHZ
Type GND Name GND Frequency 121.7 MHZ
Type TWR Name TWR Frequency 118.7 MHZ

 AIRPORT NEAR NAVIGATION AIDS
Type VOR-DME Name Tenerife Norte Frequency 117700 KHZ
Type NDB Name Tenerife Norte Frequency 410 KHZ